Time;durP1;ratioP1;P1;durP2;ratioP2;P2;SDS_P1;SDS_P2;PMS_P1;PMS_P2;Temp;Humidity;BMP_temperature;BMP_pressure;BME280_temperature;BME280_humidity;BME280_pressure;Samples;Min_cycle;Max_cycle;Signal;HPM_P1;HPM_P2
2023/08/13 00:01:46;;;;;;;7.82;3.30;;;;;;;;;;6266218;22;20323;-89
2023/08/13 00:04:51;;;;;;;4.65;2.97;;;;;;;;;;6266754;22;20538;-90
2023/08/13 00:07:56;;;;;;;4.80;3.15;;;;;;;;;;6267107;22;20166;-90
2023/08/13 00:11:09;;;;;;;6.07;3.03;;;;;;;;;;6266180;22;20196;-88
2023/08/13 00:14:14;;;;;;;7.65;3.28;;;;;;;;;;6266790;22;20170;-89
2023/08/13 00:17:20;;;;;;;9.05;3.40;;;;;;;;;;6267208;22;20189;-88
2023/08/13 00:20:25;;;;;;;6.65;3.10;;;;;;;;;;6268164;22;20181;-90
2023/08/13 00:23:32;;;;;;;6.95;3.20;;;;;;;;;;6267070;22;20170;-88
2023/08/13 00:26:37;;;;;;;8.02;2.88;;;;;;;;;;6265426;22;20166;-88
2023/08/13 00:29:43;;;;;;;5.68;3.03;;;;;;;;;;6284896;22;20161;-90
2023/08/13 00:32:50;;;;;;;4.05;2.92;;;;;;;;;;6266257;22;20174;-89
2023/08/13 00:35:55;;;;;;;5.50;2.90;;;;;;;;;;6266585;22;20170;-90
2023/08/13 00:39:03;;;;;;;6.28;3.20;;;;;;;;;;6267096;22;20476;-87
2023/08/13 00:42:08;;;;;;;5.28;3.30;;;;;;;;;;6263814;22;20181;-89
2023/08/13 00:45:14;;;;;;;7.13;2.88;;;;;;;;;;6263223;22;20369;-89
2023/08/13 00:48:20;;;;;;;4.47;2.90;;;;;;;;;;6263708;22;20685;-89
2023/08/13 00:51:26;;;;;;;7.10;3.08;;;;;;;;;;6263794;22;20154;-90
2023/08/13 00:54:32;;;;;;;7.18;3.25;;;;;;;;;;6263960;22;20173;-89
2023/08/13 00:57:37;;;;;;;6.07;3.13;;;;;;;;;;6264758;22;20166;-88
2023/08/13 01:00:42;;;;;;;11.43;2.92;;;;;;;;;;6286006;22;20247;-90
2023/08/13 01:03:48;;;;;;;4.70;3.00;;;;;;;;;;6264390;22;20165;-89
2023/08/13 01:07:02;;;;;;;9.98;3.38;;;;;;;;;;6264425;22;20215;-90
2023/08/13 01:10:12;;;;;;;9.57;3.15;;;;;;;;;;6264477;22;20174;-89
2023/08/13 01:13:21;;;;;;;4.97;3.33;;;;;;;;;;6264067;22;20170;-89
2023/08/13 01:16:26;;;;;;;10.32;3.90;;;;;;;;;;6263606;22;20170;-92
2023/08/13 01:19:32;;;;;;;8.95;4.25;;;;;;;;;;6264752;22;20173;-88
2023/08/13 01:22:39;;;;;;;11.05;4.32;;;;;;;;;;6263701;22;20230;-90
2023/08/13 01:25:46;;;;;;;7.97;3.08;;;;;;;;;;6262190;22;20204;-89
2023/08/13 01:28:54;;;;;;;8.55;3.08;;;;;;;;;;6264228;22;20173;-90
2023/08/13 01:32:02;;;;;;;5.13;3.30;;;;;;;;;;6263485;22;20655;-89
2023/08/13 01:35:09;;;;;;;9.30;3.35;;;;;;;;;;6263471;22;20165;-87
2023/08/13 01:38:16;;;;;;;9.95;3.38;;;;;;;;;;6264008;22;20197;-89
2023/08/13 01:41:21;;;;;;;8.20;3.42;;;;;;;;;;6265276;22;20204;-88
2023/08/13 01:44:26;;;;;;;6.90;3.67;;;;;;;;;;6262762;22;20170;-90
2023/08/13 01:47:31;;;;;;;6.28;3.35;;;;;;;;;;6263707;22;20220;-88
2023/08/13 01:50:38;;;;;;;9.27;3.33;;;;;;;;;;6264483;22;20190;-89
2023/08/13 01:53:44;;;;;;;5.43;3.42;;;;;;;;;;6262976;22;20170;-89
2023/08/13 01:56:49;;;;;;;6.88;3.42;;;;;;;;;;6262663;22;20672;-90
2023/08/13 01:59:55;;;;;;;7.82;3.00;;;;;;;;;;6262838;22;20557;-90
2023/08/13 02:03:01;;;;;;;7.75;3.25;;;;;;;;;;6262185;22;20506;-91
2023/08/13 02:06:05;;;;;;;8.85;3.60;;;;;;;;;;6261964;22;20251;-90
2023/08/13 02:09:12;;;;;;;12.85;2.95;;;;;;;;;;6261711;22;20169;-87
2023/08/13 02:12:17;;;;;;;8.48;3.10;;;;;;;;;;6261957;22;20169;-88
2023/08/13 02:15:22;;;;;;;6.85;3.17;;;;;;;;;;6262444;22;20169;-89
2023/08/13 02:18:27;;;;;;;7.18;3.08;;;;;;;;;;6281561;22;20169;-88
2023/08/13 02:21:33;;;;;;;7.32;3.47;;;;;;;;;;6263067;22;20182;-88
2023/08/13 02:24:40;;;;;;;7.13;3.38;;;;;;;;;;6260788;22;20285;-90
2023/08/13 02:27:45;;;;;;;5.95;3.08;;;;;;;;;;6260783;22;20165;-88
2023/08/13 02:30:50;;;;;;;10.15;3.25;;;;;;;;;;6261149;22;20229;-90
2023/08/13 02:33:56;;;;;;;9.65;3.33;;;;;;;;;;6261213;22;20173;-88
2023/08/13 02:37:01;;;;;;;3.83;3.13;;;;;;;;;;6261600;22;20217;-90
2023/08/13 02:40:08;;;;;;;8.35;3.47;;;;;;;;;;6260850;22;20173;-89
2023/08/13 02:43:15;;;;;;;6.75;3.60;;;;;;;;;;6280901;22;20226;-89
2023/08/13 02:46:21;;;;;;;7.97;3.53;;;;;;;;;;6263112;22;20192;-88
2023/08/13 02:49:26;;;;;;;7.47;3.22;;;;;;;;;;6262035;22;20503;-87
2023/08/13 02:52:31;;;;;;;7.75;3.65;;;;;;;;;;6263435;22;20189;-89
2023/08/13 02:55:38;;;;;;;9.40;3.67;;;;;;;;;;6263530;22;20186;-89
2023/08/13 02:58:43;;;;;;;8.45;3.22;;;;;;;;;;6262813;22;20162;-89
2023/08/13 03:01:47;;;;;;;4.93;3.20;;;;;;;;;;6264048;22;20224;-88
2023/08/13 03:04:52;;;;;;;6.85;3.30;;;;;;;;;;6283865;22;20170;-90
2023/08/13 03:07:57;;;;;;;6.82;3.42;;;;;;;;;;6264964;22;20174;-88
2023/08/13 03:11:04;;;;;;;5.78;3.45;;;;;;;;;;6266094;22;20208;-87
2023/08/13 03:14:09;;;;;;;4.85;3.03;;;;;;;;;;6267699;22;20173;-89
2023/08/13 03:17:14;;;;;;;6.65;3.42;;;;;;;;;;6265593;22;20462;-88
2023/08/13 03:20:21;;;;;;;9.05;3.28;;;;;;;;;;6273844;22;20238;-89
2023/08/13 03:23:27;;;;;;;7.15;2.78;;;;;;;;;;6265966;22;20166;-90
2023/08/13 03:26:33;;;;;;;6.40;3.20;;;;;;;;;;6267319;22;20193;-89
2023/08/13 03:29:41;;;;;;;6.63;3.40;;;;;;;;;;6266599;22;20177;-89
2023/08/13 03:32:48;;;;;;;5.28;2.95;;;;;;;;;;6268517;22;20162;-88
2023/08/13 03:35:58;;;;;;;5.68;3.30;;;;;;;;;;6268708;22;20236;-88
2023/08/13 03:39:04;;;;;;;7.72;3.00;;;;;;;;;;6270264;22;20178;-89
2023/08/13 03:42:10;;;;;;;7.82;3.58;;;;;;;;;;6270444;22;20165;-88
2023/08/13 03:45:15;;;;;;;8.05;3.70;;;;;;;;;;6267692;22;20182;-86
2023/08/13 03:48:20;;;;;;;12.00;3.55;;;;;;;;;;6271690;22;20267;-86
2023/08/13 03:51:26;;;;;;;5.70;3.35;;;;;;;;;;6270913;22;20166;-90
2023/08/13 03:54:32;;;;;;;6.43;3.53;;;;;;;;;;6272205;22;20174;-88
2023/08/13 03:57:38;;;;;;;7.53;3.28;;;;;;;;;;6272393;22;20270;-88
2023/08/13 04:00:44;;;;;;;5.38;3.47;;;;;;;;;;6272028;22;20209;-87
2023/08/13 04:03:50;;;;;;;9.68;3.63;;;;;;;;;;6270483;22;20162;-88
2023/08/13 04:06:56;;;;;;;7.65;3.53;;;;;;;;;;6269556;22;20194;-87
2023/08/13 04:10:01;;;;;;;12.02;3.28;;;;;;;;;;6268881;22;20170;-89
2023/08/13 04:13:09;;;;;;;8.82;3.33;;;;;;;;;;6273567;22;20170;-89
2023/08/13 04:16:15;;;;;;;5.63;3.30;;;;;;;;;;6268978;22;20162;-85
2023/08/13 04:19:23;;;;;;;5.63;3.40;;;;;;;;;;6268696;22;20234;-89
2023/08/13 04:22:29;;;;;;;7.82;3.80;;;;;;;;;;6270590;22;20146;-91
2023/08/13 04:25:34;;;;;;;5.22;3.03;;;;;;;;;;6288121;22;20531;-89
2023/08/13 04:28:41;;;;;;;5.40;3.10;;;;;;;;;;6269519;22;20163;-89
2023/08/13 04:31:46;;;;;;;7.68;3.28;;;;;;;;;;6268419;22;20170;-90
2023/08/13 04:34:51;;;;;;;6.15;3.45;;;;;;;;;;6266698;22;20605;-88
2023/08/13 04:37:57;;;;;;;9.65;3.67;;;;;;;;;;6266300;22;20193;-89
2023/08/13 04:41:03;;;;;;;6.13;3.47;;;;;;;;;;6266684;22;20185;-90
2023/08/13 04:44:13;;;;;;;10.57;3.33;;;;;;;;;;6268802;22;20212;-89
2023/08/13 04:47:18;;;;;;;8.25;3.60;;;;;;;;;;6268216;22;20194;-89
2023/08/13 04:50:23;;;;;;;5.93;3.20;;;;;;;;;;6264487;22;20609;-87
2023/08/13 04:53:28;;;;;;;7.18;3.40;;;;;;;;;;6265482;22;20185;-90
2023/08/13 04:56:34;;;;;;;6.18;3.50;;;;;;;;;;6264403;22;20165;-90
2023/08/13 04:59:41;;;;;;;8.75;3.40;;;;;;;;;;6264970;22;20430;-89
2023/08/13 05:02:47;;;;;;;5.13;3.22;;;;;;;;;;6266264;22;20173;-88
2023/08/13 05:05:53;;;;;;;6.95;3.72;;;;;;;;;;6265353;22;20519;-89
2023/08/13 05:08:58;;;;;;;6.50;3.47;;;;;;;;;;6267237;22;20161;-89
2023/08/13 05:12:03;;;;;;;6.28;3.55;;;;;;;;;;6268355;22;20499;-89
2023/08/13 05:15:11;;;;;;;7.28;3.35;;;;;;;;;;6270038;22;20174;-88
2023/08/13 05:18:17;;;;;;;5.85;3.15;;;;;;;;;;6269300;22;20209;-88
2023/08/13 05:21:23;;;;;;;12.23;3.60;;;;;;;;;;6268347;22;20189;-89
2023/08/13 05:24:28;;;;;;;7.50;3.30;;;;;;;;;;6268402;22;20193;-89
2023/08/13 05:27:33;;;;;;;10.82;3.40;;;;;;;;;;6269450;22;20308;-87
2023/08/13 05:30:40;;;;;;;6.20;3.35;;;;;;;;;;6270095;22;20193;-90
2023/08/13 05:33:47;;;;;;;8.75;3.30;;;;;;;;;;6268738;22;20212;-89
2023/08/13 05:36:52;;;;;;;6.93;3.47;;;;;;;;;;6268311;22;20189;-87
2023/08/13 05:39:57;;;;;;;6.57;3.25;;;;;;;;;;6267143;22;20232;-89
2023/08/13 05:43:07;;;;;;;9.63;4.13;;;;;;;;;;6267489;22;20166;-89
2023/08/13 05:46:14;;;;;;;6.65;3.20;;;;;;;;;;6270344;22;20189;-89
2023/08/13 05:49:19;;;;;;;4.78;3.22;;;;;;;;;;6266539;22;20178;-90
2023/08/13 05:52:25;;;;;;;6.95;3.67;;;;;;;;;;6268146;22;20209;-89
2023/08/13 05:55:30;;;;;;;8.45;3.60;;;;;;;;;;6267171;22;20165;-89
2023/08/13 05:58:35;;;;;;;9.50;3.20;;;;;;;;;;6268352;22;20161;-87
2023/08/13 06:01:42;;;;;;;6.32;3.15;;;;;;;;;;6266644;22;20169;-86
2023/08/13 06:04:47;;;;;;;7.63;3.10;;;;;;;;;;6267398;22;20181;-91
2023/08/13 06:07:52;;;;;;;6.03;3.22;;;;;;;;;;6267973;22;20182;-87
2023/08/13 06:10:57;;;;;;;6.28;3.35;;;;;;;;;;6268142;22;20502;-86
2023/08/13 06:14:03;;;;;;;4.55;3.17;;;;;;;;;;6270489;22;20620;-89
2023/08/13 06:17:10;;;;;;;9.23;3.38;;;;;;;;;;6267917;22;20169;-89
2023/08/13 06:20:15;;;;;;;4.35;3.13;;;;;;;;;;6287146;22;20165;-89
2023/08/13 06:23:21;;;;;;;5.70;2.90;;;;;;;;;;6269935;22;20161;-89
2023/08/13 06:26:25;;;;;;;5.38;2.72;;;;;;;;;;6265934;22;20193;-90
2023/08/13 06:29:31;;;;;;;6.28;3.00;;;;;;;;;;6266330;22;20169;-89
2023/08/13 06:32:37;;;;;;;13.15;2.90;;;;;;;;;;6267643;22;20290;-88
2023/08/13 06:35:45;;;;;;;7.18;3.05;;;;;;;;;;6268175;22;20240;-89
2023/08/13 06:38:50;;;;;;;6.95;2.78;;;;;;;;;;6267696;22;20233;-90
2023/08/13 06:41:55;;;;;;;9.02;3.30;;;;;;;;;;6271637;22;20166;-90
2023/08/13 06:45:07;;;;;;;5.22;2.70;;;;;;;;;;6270924;22;20201;-88
2023/08/13 06:48:14;;;;;;;7.25;3.10;;;;;;;;;;6268708;22;20197;-89
2023/08/13 06:51:19;;;;;;;5.75;3.33;;;;;;;;;;6273965;22;20173;-89
2023/08/13 06:54:24;;;;;;;4.70;2.83;;;;;;;;;;6271206;22;20166;-88
2023/08/13 06:57:29;;;;;;;4.95;3.08;;;;;;;;;;6270917;22;20284;-90
2023/08/13 07:00:34;;;;;;;6.35;3.10;;;;;;;;;;6270344;22;20162;-88
2023/08/13 07:03:44;;;;;;;4.93;2.92;;;;;;;;;;6269231;22;20165;-90
2023/08/13 07:06:49;;;;;;;3.80;2.75;;;;;;;;;;6267656;22;20223;-89
2023/08/13 07:09:54;;;;;;;6.80;2.72;;;;;;;;;;6268585;22;20169;-89
2023/08/13 07:13:00;;;;;;;10.48;3.83;;;;;;;;;;6271065;22;20239;-90
2023/08/13 07:16:09;;;;;;;5.85;2.30;;;;;;;;;;6270233;22;20166;-88
2023/08/13 07:19:16;;;;;;;4.40;2.88;;;;;;;;;;6272435;22;20217;-89
2023/08/13 07:22:22;;;;;;;5.60;2.92;;;;;;;;;;6271938;22;20166;-89
2023/08/13 07:25:28;;;;;;;4.72;2.85;;;;;;;;;;6272670;22;20169;-89
2023/08/13 07:28:34;;;;;;;7.35;2.70;;;;;;;;;;6270203;22;20495;-90
2023/08/13 07:31:39;;;;;;;5.45;2.60;;;;;;;;;;6270676;22;20170;-89
2023/08/13 07:34:46;;;;;;;3.20;2.50;;;;;;;;;;6269113;22;20632;-91
2023/08/13 07:37:53;;;;;;;5.28;2.70;;;;;;;;;;6270683;22;20192;-90
2023/08/13 07:40:58;;;;;;;3.90;2.80;;;;;;;;;;6286785;22;20174;-88
2023/08/13 07:44:04;;;;;;;3.17;2.40;;;;;;;;;;6270533;22;20180;-89
2023/08/13 07:47:09;;;;;;;4.35;2.60;;;;;;;;;;6268076;22;20193;-87
2023/08/13 07:50:15;;;;;;;5.68;2.90;;;;;;;;;;6272611;22;20181;-89
2023/08/13 07:53:20;;;;;;;4.35;2.92;;;;;;;;;;6272104;22;20216;-88
2023/08/13 07:56:26;;;;;;;3.67;2.53;;;;;;;;;;6271960;22;20169;-92
2023/08/13 07:59:31;;;;;;;3.75;2.45;;;;;;;;;;6271711;22;20173;-88
2023/08/13 08:02:36;;;;;;;3.75;2.60;;;;;;;;;;6268422;22;20164;-89
2023/08/13 08:05:47;;;;;;;3.88;2.60;;;;;;;;;;6269057;22;20153;-89
2023/08/13 08:08:52;;;;;;;4.82;2.70;;;;;;;;;;6269466;22;20542;-88
2023/08/13 08:11:57;;;;;;;6.75;2.63;;;;;;;;;;6268312;22;20611;-90
2023/08/13 08:15:02;;;;;;;4.57;2.40;;;;;;;;;;6269479;22;20165;-89
2023/08/13 08:18:08;;;;;;;5.63;2.95;;;;;;;;;;6269773;22;20229;-88
2023/08/13 08:21:15;;;;;;;4.28;2.67;;;;;;;;;;6269718;22;20157;-88
2023/08/13 08:24:20;;;;;;;4.20;2.42;;;;;;;;;;6270487;22;20212;-90
2023/08/13 08:27:28;;;;;;;3.83;2.30;;;;;;;;;;6270572;22;20185;-91
2023/08/13 08:30:33;;;;;;;4.97;2.30;;;;;;;;;;6269771;22;20508;-91
2023/08/13 08:33:38;;;;;;;6.50;2.83;;;;;;;;;;6269474;22;20203;-89
2023/08/13 08:36:45;;;;;;;4.65;2.50;;;;;;;;;;6267996;22;20192;-89
2023/08/13 08:39:50;;;;;;;4.10;2.53;;;;;;;;;;6267531;22;20456;-88
2023/08/13 08:42:55;;;;;;;8.82;2.20;;;;;;;;;;6271591;22;20679;-90
2023/08/13 08:46:01;;;;;;;4.95;2.55;;;;;;;;;;6269309;22;20605;-89
2023/08/13 08:49:07;;;;;;;4.90;2.50;;;;;;;;;;6269348;22;20161;-89
2023/08/13 08:52:14;;;;;;;4.95;2.70;;;;;;;;;;6270951;22;20208;-89
2023/08/13 08:55:19;;;;;;;4.00;2.40;;;;;;;;;;6271356;22;20169;-89
2023/08/13 08:58:34;;;;;;;6.40;2.60;;;;;;;;;;6270128;22;20160;-91
2023/08/13 09:01:40;;;;;;;5.95;2.45;;;;;;;;;;6268849;22;20184;-90
2023/08/13 09:04:45;;;;;;;3.95;2.30;;;;;;;;;;6266313;22;20506;-90
2023/08/13 09:08:02;;;;;;;7.13;2.90;;;;;;;;;;6268516;22;20176;-90
2023/08/13 09:11:09;;;;;;;5.03;2.35;;;;;;;;;;6269154;22;20303;-90
2023/08/13 09:14:13;;;;;;;4.05;2.60;;;;;;;;;;6271649;22;20280;-89
2023/08/13 09:17:19;;;;;;;5.82;2.30;;;;;;;;;;6270761;22;20200;-90
2023/08/13 09:20:24;;;;;;;6.28;2.50;;;;;;;;;;6268761;22;20229;-87
2023/08/13 09:23:30;;;;;;;5.10;2.80;;;;;;;;;;6269199;22;20149;-90
2023/08/13 09:26:36;;;;;;;6.60;2.88;;;;;;;;;;6270005;22;20164;-88
2023/08/13 09:29:41;;;;;;;5.75;2.95;;;;;;;;;;6269615;22;20211;-90
2023/08/13 09:32:47;;;;;;;4.88;2.50;;;;;;;;;;6271150;22;20169;-89
2023/08/13 09:35:53;;;;;;;5.30;2.58;;;;;;;;;;6272477;22;20169;-89
2023/08/13 09:38:59;;;;;;;5.78;2.47;;;;;;;;;;6267263;22;20324;-91
2023/08/13 09:42:06;;;;;;;4.22;2.50;;;;;;;;;;6269927;22;20181;-91
2023/08/13 09:45:12;;;;;;;5.53;2.58;;;;;;;;;;6269077;22;20165;-91
2023/08/13 09:48:19;;;;;;;4.40;2.60;;;;;;;;;;6267792;22;20193;-90
2023/08/13 09:51:27;;;;;;;6.07;2.55;;;;;;;;;;6268241;22;20236;-88
2023/08/13 09:54:40;;;;;;;5.68;2.97;;;;;;;;;;6287681;22;20491;-89
2023/08/13 09:57:45;;;;;;;6.68;2.65;;;;;;;;;;6269485;22;20238;-89
2023/08/13 10:00:51;;;;;;;4.28;2.88;;;;;;;;;;6270288;22;20612;-90
2023/08/13 10:03:56;;;;;;;6.00;3.13;;;;;;;;;;6267849;22;20289;-90
2023/08/13 10:07:02;;;;;;;5.85;2.72;;;;;;;;;;6268837;22;20189;-90
2023/08/13 10:10:09;;;;;;;5.45;2.60;;;;;;;;;;6265876;22;20212;-91
2023/08/13 10:13:15;;;;;;;5.93;2.97;;;;;;;;;;6265933;22;20165;-89
2023/08/13 10:16:21;;;;;;;4.75;2.70;;;;;;;;;;6268598;22;20161;-90
2023/08/13 10:19:29;;;;;;;6.15;2.63;;;;;;;;;;6268427;22;20162;-90
2023/08/13 10:22:36;;;;;;;6.70;3.08;;;;;;;;;;6266053;22;20295;-90
2023/08/13 10:25:44;;;;;;;7.38;3.10;;;;;;;;;;6266131;22;20224;-89
2023/08/13 10:28:54;;;;;;;7.32;2.90;;;;;;;;;;6267529;22;20194;-91
2023/08/13 10:32:01;;;;;;;5.70;2.70;;;;;;;;;;6270906;22;20161;-90
2023/08/13 10:35:24;;;;;;;9.02;2.42;;;;;;;;;;6270770;22;20157;-91
2023/08/13 10:38:34;;;;;;;5.65;2.70;;;;;;;;;;6269881;22;20165;-93
2023/08/13 10:41:44;;;;;;;6.50;2.85;;;;;;;;;;6270495;22;20149;-92
2023/08/13 10:44:49;;;;;;;3.83;2.40;;;;;;;;;;6271414;22;20164;-92
2023/08/13 10:47:55;;;;;;;4.15;2.78;;;;;;;;;;6270803;22;20176;-90
2023/08/13 10:51:00;;;;;;;5.13;2.80;;;;;;;;;;6272284;22;20203;-90
2023/08/13 10:54:09;;;;;;;5.53;2.83;;;;;;;;;;6272053;22;20208;-91
2023/08/13 10:57:16;;;;;;;4.75;2.45;;;;;;;;;;6274472;22;20168;-91
2023/08/13 11:00:23;;;;;;;7.75;2.55;;;;;;;;;;6271841;22;20176;-90
2023/08/13 11:03:30;;;;;;;6.20;2.88;;;;;;;;;;6272899;22;20164;-90
2023/08/13 11:06:36;;;;;;;6.43;2.88;;;;;;;;;;6274393;22;20476;-90
2023/08/13 11:09:43;;;;;;;6.32;2.55;;;;;;;;;;6273484;22;20299;-91
2023/08/13 11:12:53;;;;;;;4.82;2.50;;;;;;;;;;6274882;22;20200;-90
2023/08/13 11:15:58;;;;;;;10.93;3.30;;;;;;;;;;6273911;22;20169;-90
2023/08/13 11:19:05;;;;;;;6.40;2.60;;;;;;;;;;6274740;22;20185;-89
2023/08/13 11:22:11;;;;;;;11.10;2.50;;;;;;;;;;6274335;22;20165;-89
2023/08/13 11:25:16;;;;;;;14.18;2.67;;;;;;;;;;6274816;22;20631;-90
2023/08/13 11:28:23;;;;;;;5.63;2.88;;;;;;;;;;6274687;22;20181;-91
2023/08/13 11:31:28;;;;;;;3.95;2.60;;;;;;;;;;6275036;22;20153;-88
2023/08/13 11:34:33;;;;;;;9.63;2.80;;;;;;;;;;6274184;22;20212;-92
2023/08/13 11:37:38;;;;;;;6.13;2.70;;;;;;;;;;6273258;22;20196;-90
2023/08/13 11:40:44;;;;;;;5.18;2.72;;;;;;;;;;6272603;22;20156;-91
2023/08/13 11:43:55;;;;;;;6.63;2.85;;;;;;;;;;6271731;22;20172;-89
2023/08/13 11:47:01;;;;;;;5.75;2.70;;;;;;;;;;6274077;22;20149;-90
2023/08/13 11:50:07;;;;;;;6.05;2.95;;;;;;;;;;6273339;22;20251;-89
2023/08/13 11:53:15;;;;;;;4.07;2.60;;;;;;;;;;6271722;22;20230;-91
2023/08/13 11:56:21;;;;;;;4.85;2.75;;;;;;;;;;6272171;22;20169;-91
2023/08/13 11:59:30;;;;;;;4.95;2.33;;;;;;;;;;6271487;22;20173;-90
2023/08/13 12:02:35;;;;;;;5.40;2.40;;;;;;;;;;6272969;22;20166;-89
2023/08/13 12:05:41;;;;;;;8.43;3.08;;;;;;;;;;6269044;22;20173;-92
2023/08/13 12:08:47;;;;;;;4.70;2.80;;;;;;;;;;6269705;22;20189;-91
2023/08/13 12:11:54;;;;;;;4.65;2.45;;;;;;;;;;6268770;22;20168;-91
2023/08/13 12:15:00;;;;;;;8.45;2.70;;;;;;;;;;6270069;22;20194;-90
2023/08/13 12:18:05;;;;;;;8.68;2.92;;;;;;;;;;6269950;22;20690;-90
2023/08/13 12:21:10;;;;;;;5.53;2.40;;;;;;;;;;6269231;22;20165;-92
2023/08/13 12:24:15;;;;;;;6.25;2.53;;;;;;;;;;6269912;22;20165;-90
2023/08/13 12:27:20;;;;;;;6.20;2.30;;;;;;;;;;6268482;22;20615;-90
2023/08/13 12:30:27;;;;;;;3.97;2.60;;;;;;;;;;6269108;22;20188;-87
2023/08/13 12:33:32;;;;;;;5.13;2.67;;;;;;;;;;6271582;22;20165;-90
2023/08/13 12:36:37;;;;;;;9.07;2.75;;;;;;;;;;6270413;22;20189;-92
2023/08/13 12:39:43;;;;;;;4.15;2.63;;;;;;;;;;6269752;22;20216;-92
2023/08/13 12:42:48;;;;;;;5.97;2.70;;;;;;;;;;6269393;22;20496;-91
2023/08/13 12:45:55;;;;;;;5.70;2.50;;;;;;;;;;6267955;22;20275;-88
2023/08/13 12:49:00;;;;;;;6.82;2.40;;;;;;;;;;6268712;22;20321;-89
2023/08/13 12:52:06;;;;;;;5.20;2.72;;;;;;;;;;6269844;22;20173;-89
2023/08/13 12:55:11;;;;;;;5.05;2.50;;;;;;;;;;6269582;22;20236;-92
2023/08/13 12:58:16;;;;;;;7.63;2.72;;;;;;;;;;6271427;22;20180;-91
2023/08/13 13:01:26;;;;;;;7.00;2.60;;;;;;;;;;6271201;22;20230;-90
2023/08/13 13:04:32;;;;;;;6.15;2.67;;;;;;;;;;6271600;22;20161;-91
2023/08/13 13:07:38;;;;;;;7.57;2.53;;;;;;;;;;6270548;22;20612;-92
2023/08/13 13:10:43;;;;;;;5.57;2.38;;;;;;;;;;6270511;22;20165;-88
2023/08/13 13:13:48;;;;;;;4.75;2.40;;;;;;;;;;6270409;22;20164;-90
2023/08/13 13:16:54;;;;;;;3.22;2.38;;;;;;;;;;6269929;22;20157;-91
2023/08/13 13:20:05;;;;;;;3.53;2.20;;;;;;;;;;6270776;22;20165;-90
2023/08/13 13:23:12;;;;;;;4.70;2.65;;;;;;;;;;6272067;22;20292;-92
2023/08/13 13:26:17;;;;;;;5.47;2.03;;;;;;;;;;6272170;22;20188;-92
2023/08/13 13:29:22;;;;;;;4.93;2.20;;;;;;;;;;6269504;22;20336;-90
2023/08/13 13:32:28;;;;;;;7.72;2.20;;;;;;;;;;6270209;22;20165;-92
2023/08/13 13:35:33;;;;;;;4.25;2.40;;;;;;;;;;6268273;22;20169;-89
2023/08/13 13:38:39;;;;;;;5.18;2.50;;;;;;;;;;6269571;22;20172;-90
2023/08/13 13:41:44;;;;;;;7.95;2.30;;;;;;;;;;6270806;22;20165;-92
2023/08/13 13:44:49;;;;;;;3.95;2.75;;;;;;;;;;6269790;22;20165;-89
2023/08/13 13:47:56;;;;;;;9.60;2.40;;;;;;;;;;6270426;22;20620;-89
2023/08/13 13:51:01;;;;;;;12.00;3.70;;;;;;;;;;6268305;22;20496;-92
2023/08/13 13:54:07;;;;;;;6.75;2.70;;;;;;;;;;6269194;22;20148;-90
2023/08/13 13:57:12;;;;;;;8.13;2.40;;;;;;;;;;6268521;22;20260;-91
2023/08/13 14:00:17;;;;;;;4.88;2.65;;;;;;;;;;6268849;22;20181;-91
2023/08/13 14:03:24;;;;;;;7.72;2.40;;;;;;;;;;6269049;22;20510;-90
2023/08/13 14:06:29;;;;;;;6.93;2.47;;;;;;;;;;6270917;22;20245;-88
2023/08/13 14:09:34;;;;;;;6.18;2.63;;;;;;;;;;6270268;22;20181;-89
2023/08/13 14:12:40;;;;;;;6.25;2.70;;;;;;;;;;6269540;22;20648;-90
2023/08/13 14:15:45;;;;;;;5.30;2.92;;;;;;;;;;6273826;22;20248;-88
2023/08/13 14:18:52;;;;;;;5.38;2.70;;;;;;;;;;6269873;22;20168;-88
2023/08/13 14:21:58;;;;;;;6.78;2.70;;;;;;;;;;6269960;22;20165;-90
2023/08/13 14:25:03;;;;;;;5.72;2.75;;;;;;;;;;6269714;22;20692;-88
2023/08/13 14:28:08;;;;;;;4.03;2.55;;;;;;;;;;6269203;22;20177;-91
2023/08/13 14:31:13;;;;;;;5.28;2.60;;;;;;;;;;6270534;22;20600;-89
2023/08/13 14:34:20;;;;;;;5.45;2.60;;;;;;;;;;6270481;22;20166;-91
2023/08/13 14:37:26;;;;;;;7.25;2.75;;;;;;;;;;6271700;22;20274;-90
2023/08/13 14:40:30;;;;;;;6.45;2.75;;;;;;;;;;6268157;22;20260;-90
2023/08/13 14:43:35;;;;;;;6.22;3.10;;;;;;;;;;6269075;22;20192;-90
2023/08/13 14:46:41;;;;;;;5.47;3.10;;;;;;;;;;6270047;22;20165;-90
2023/08/13 14:49:48;;;;;;;7.72;2.65;;;;;;;;;;6271623;22;20200;-90
2023/08/13 14:52:53;;;;;;;4.32;2.78;;;;;;;;;;6271027;22;20169;-90
2023/08/13 14:55:58;;;;;;;4.72;2.30;;;;;;;;;;6288512;22;20165;-90
2023/08/13 14:59:04;;;;;;;6.45;2.80;;;;;;;;;;6269687;22;20166;-91
2023/08/13 15:02:09;;;;;;;6.95;2.70;;;;;;;;;;6270188;22;20173;-91
2023/08/13 15:05:16;;;;;;;5.55;2.70;;;;;;;;;;6268226;22;20220;-91
2023/08/13 15:08:21;;;;;;;5.18;2.72;;;;;;;;;;6269317;22;20637;-90
2023/08/13 15:11:27;;;;;;;7.60;2.55;;;;;;;;;;6272322;22;20240;-91
2023/08/13 15:14:32;;;;;;;5.43;2.13;;;;;;;;;;6269039;22;20208;-92
2023/08/13 15:17:37;;;;;;;5.53;2.60;;;;;;;;;;6270788;22;20158;-90
2023/08/13 15:20:44;;;;;;;5.03;2.50;;;;;;;;;;6271146;22;20226;-90
2023/08/13 15:23:50;;;;;;;6.20;2.60;;;;;;;;;;6272238;22;20165;-90
2023/08/13 15:26:57;;;;;;;5.45;2.22;;;;;;;;;;6271975;22;20189;-90
2023/08/13 15:30:03;;;;;;;4.80;2.40;;;;;;;;;;6272182;22;20196;-89
2023/08/13 15:36:30;;;;;;;4.07;2.15;;;;;;;;;;6274835;22;20212;-90
2023/08/13 15:39:36;;;;;;;4.43;2.10;;;;;;;;;;6295345;22;20233;-89
2023/08/13 15:42:42;;;;;;;7.20;2.20;;;;;;;;;;6275526;22;20165;-90
2023/08/13 15:45:48;;;;;;;7.43;2.38;;;;;;;;;;6271683;22;20204;-89
2023/08/13 15:48:53;;;;;;;3.25;2.05;;;;;;;;;;6271443;22;20318;-89
2023/08/13 15:52:00;;;;;;;6.30;2.25;;;;;;;;;;6271647;22;20165;-89
2023/08/13 15:55:05;;;;;;;8.07;2.33;;;;;;;;;;6272446;22;20188;-89
2023/08/13 15:58:12;;;;;;;5.53;2.55;;;;;;;;;;6268512;22;20169;-89
2023/08/13 16:01:17;;;;;;;9.23;2.67;;;;;;;;;;6269966;22;20173;-88
2023/08/13 16:04:22;;;;;;;7.18;2.35;;;;;;;;;;6269003;22;20165;-89
2023/08/13 16:07:28;;;;;;;5.93;2.40;;;;;;;;;;6271736;22;20245;-91
2023/08/13 16:10:34;;;;;;;4.90;1.85;;;;;;;;;;6269604;22;20193;-88
2023/08/13 16:13:40;;;;;;;5.65;2.10;;;;;;;;;;6269429;22;20230;-90
2023/08/13 16:16:46;;;;;;;9.48;3.70;;;;;;;;;;6270430;22;20188;-86
2023/08/13 16:19:51;;;;;;;7.80;3.35;;;;;;;;;;6279435;22;20504;-90
2023/08/13 16:22:58;;;;;;;9.40;3.67;;;;;;;;;;6270892;22;20612;-90
2023/08/13 16:26:03;;;;;;;9.27;2.75;;;;;;;;;;6270490;22;20621;-91
2023/08/13 16:29:07;;;;;;;7.70;2.72;;;;;;;;;;6271792;22;20193;-87
2023/08/13 16:32:12;;;;;;;8.55;2.80;;;;;;;;;;6269620;22;20173;-90
2023/08/13 16:35:18;;;;;;;6.78;2.65;;;;;;;;;;6271245;22;20241;-91
2023/08/13 16:38:25;;;;;;;6.13;2.58;;;;;;;;;;6276110;22;20200;-90
2023/08/13 16:41:30;;;;;;;9.57;2.65;;;;;;;;;;6274018;22;20161;-90
2023/08/13 16:44:36;;;;;;;5.00;2.63;;;;;;;;;;6272286;22;20165;-89
2023/08/13 16:47:41;;;;;;;8.05;2.75;;;;;;;;;;6272109;22;20165;-90
2023/08/13 16:50:46;;;;;;;12.40;2.90;;;;;;;;;;6272082;22;20174;-89
2023/08/13 16:53:54;;;;;;;13.80;2.42;;;;;;;;;;6272378;22;20170;-88
2023/08/13 16:57:03;;;;;;;6.65;2.58;;;;;;;;;;6272369;22;20166;-91
2023/08/13 17:00:11;;;;;;;11.98;2.42;;;;;;;;;;6272199;22;20558;-91
2023/08/13 17:03:17;;;;;;;6.93;2.65;;;;;;;;;;6274126;22;20232;-89
2023/08/13 17:06:23;;;;;;;9.93;3.10;;;;;;;;;;6274788;22;20169;-89
2023/08/13 17:09:30;;;;;;;11.07;2.60;;;;;;;;;;6274236;22;20208;-90
2023/08/13 17:12:35;;;;;;;7.75;2.50;;;;;;;;;;6275397;22;20169;-89
2023/08/13 17:15:44;;;;;;;10.50;2.50;;;;;;;;;;6275013;22;20154;-93
2023/08/13 17:18:49;;;;;;;5.88;2.78;;;;;;;;;;6275250;22;20488;-92
2023/08/13 17:21:54;;;;;;;10.35;2.65;;;;;;;;;;6272209;22;20166;-92
2023/08/13 17:25:01;;;;;;;7.57;2.63;;;;;;;;;;6271235;22;20609;-90
2023/08/13 17:28:08;;;;;;;8.10;2.88;;;;;;;;;;6270626;22;20165;-88
2023/08/13 17:31:13;;;;;;;8.27;2.80;;;;;;;;;;6271097;22;20193;-89
2023/08/13 17:34:18;;;;;;;9.75;3.10;;;;;;;;;;6272709;22;20299;-90
2023/08/13 17:37:23;;;;;;;11.45;2.92;;;;;;;;;;6272309;22;20193;-89
2023/08/13 17:40:30;;;;;;;8.43;2.65;;;;;;;;;;6272228;22;20161;-90
2023/08/13 17:43:36;;;;;;;10.57;2.92;;;;;;;;;;6271407;22;20240;-90
2023/08/13 17:46:41;;;;;;;9.13;3.30;;;;;;;;;;6273558;22;20205;-88
2023/08/13 17:49:46;;;;;;;9.63;3.50;;;;;;;;;;6271899;22;20513;-90
2023/08/13 17:52:51;;;;;;;13.70;2.97;;;;;;;;;;6270538;22;20177;-90
2023/08/13 17:56:00;;;;;;;10.88;2.88;;;;;;;;;;6272127;22;20213;-90
2023/08/13 17:59:05;;;;;;;12.05;3.40;;;;;;;;;;6271414;22;20166;-90
2023/08/13 18:02:10;;;;;;;9.70;3.67;;;;;;;;;;6270304;22;20189;-92
2023/08/13 18:05:16;;;;;;;5.03;3.10;;;;;;;;;;6271162;22;20616;-90
2023/08/13 18:08:21;;;;;;;8.75;2.72;;;;;;;;;;6271273;22;20170;-89
2023/08/13 18:11:32;;;;;;;9.63;2.78;;;;;;;;;;6272739;22;20204;-88
2023/08/13 18:14:37;;;;;;;11.07;3.08;;;;;;;;;;6270762;22;20169;-89
2023/08/13 18:17:48;;;;;;;5.88;3.03;;;;;;;;;;6276249;22;20173;-90
2023/08/13 18:20:53;;;;;;;9.07;3.13;;;;;;;;;;6275516;22;20193;-90
2023/08/13 18:23:58;;;;;;;9.07;2.90;;;;;;;;;;6271803;22;20170;-89
2023/08/13 18:27:05;;;;;;;9.30;3.20;;;;;;;;;;6273483;22;20157;-90
2023/08/13 18:30:10;;;;;;;10.15;3.70;;;;;;;;;;6272347;22;20185;-90
2023/08/13 18:33:15;;;;;;;9.10;3.72;;;;;;;;;;6275190;22;20169;-88
2023/08/13 18:36:20;;;;;;;8.32;3.50;;;;;;;;;;6274139;22;20236;-91
2023/08/13 18:39:26;;;;;;;8.27;3.50;;;;;;;;;;6274985;22;20499;-90